Time;durP1;ratioP1;P1;durP2;ratioP2;P2;SDS_P1;SDS_P2;PMS_P1;PMS_P2;Temp;Humidity;BMP_temperature;BMP_pressure;BME280_temperature;BME280_humidity;BME280_pressure;Samples;Min_cycle;Max_cycle;Signal;HPM_P1;HPM_P2
2021/10/27 00:00:52;;;;;;;;;;;;;;;-0.23;77.70;102633.89;1877612;76;20148;-61
2021/10/27 00:03:20;;;;;;;;;;;;;;;-0.24;78.06;102629.13;1877812;76;20391;-60
2021/10/27 00:05:48;;;;;;;;;;;;;;;-0.25;78.15;102629.08;1877614;76;20151;-60
2021/10/27 00:08:16;;;;;;;;;;;;;;;-0.27;78.50;102621.25;1877522;76;20117;-61
2021/10/27 00:10:44;;;;;;;;;;;;;;;-0.29;78.56;102623.33;1877554;75;20160;-61
2021/10/27 00:13:11;;;;;;;;;;;;;;;-0.31;78.80;102626.27;1877602;76;20117;-61
2021/10/27 00:15:39;;;;;;;;;;;;;;;-0.32;78.93;102614.14;1877582;76;20151;-60
2021/10/27 00:18:07;;;;;;;;;;;;;;;-0.31;78.68;102624.98;1877592;76;20117;-60
2021/10/27 00:20:35;;;;;;;;;;;;;;;-0.25;78.18;102614.83;1877586;76;20151;-60
2021/10/27 00:23:03;;;;;;;;;;;;;;;-0.22;77.80;102605.89;1877457;76;20105;-61
2021/10/27 00:25:31;;;;;;;;;;;;;;;-0.21;77.61;102604.62;1877591;76;20599;-61
2021/10/27 00:27:59;;;;;;;;;;;;;;;-0.21;77.65;102600.73;1877606;76;20109;-60
2021/10/27 00:30:26;;;;;;;;;;;;;;;-0.19;77.41;102598.21;1877569;76;20151;-60
2021/10/27 00:32:54;;;;;;;;;;;;;;;-0.20;77.34;102599.06;1877610;76;20155;-61
2021/10/27 00:35:22;;;;;;;;;;;;;;;-0.20;77.26;102590.00;1877591;76;20125;-61
2021/10/27 00:37:50;;;;;;;;;;;;;;;-0.21;77.23;102594.69;1877543;76;20489;-61
2021/10/27 00:40:18;;;;;;;;;;;;;;;-0.22;77.08;102595.53;1877665;76;20121;-61
2021/10/27 00:42:46;;;;;;;;;;;;;;;-0.24;77.15;102591.98;1877518;76;20172;-60
2021/10/27 00:45:14;;;;;;;;;;;;;;;-0.25;77.17;102591.53;1877539;76;20168;-60
2021/10/27 00:47:42;;;;;;;;;;;;;;;-0.27;77.01;102591.90;1877530;76;20117;-61
2021/10/27 00:50:10;;;;;;;;;;;;;;;-0.29;77.20;102593.55;1877502;75;20108;-61
2021/10/27 00:52:37;;;;;;;;;;;;;;;-0.36;77.58;102591.15;1877585;76;20113;-61
2021/10/27 00:55:06;;;;;;;;;;;;;;;-0.41;77.82;102590.09;1877483;76;20121;-60
2021/10/27 00:57:34;;;;;;;;;;;;;;;-0.40;77.54;102588.86;1877567;76;20168;-60
2021/10/27 01:00:04;;;;;;;;;;;;;;;-0.40;77.30;102579.80;1877537;76;20121;-60
2021/10/27 01:02:32;;;;;;;;;;;;;;;-0.41;77.10;102577.16;1877431;76;20379;-62
2021/10/27 01:04:59;;;;;;;;;;;;;;;-0.41;76.95;102580.65;1877541;76;20422;-60
2021/10/27 01:07:27;;;;;;;;;;;;;;;-0.41;76.95;102581.04;1877620;76;20116;-61
2021/10/27 01:09:55;;;;;;;;;;;;;;;-0.42;76.93;102576.28;1877698;76;20113;-60
2021/10/27 01:12:23;;;;;;;;;;;;;;;-0.43;76.83;102568.03;1877692;76;20113;-60
2021/10/27 01:14:51;;;;;;;;;;;;;;;-0.41;76.73;102560.33;1877693;75;20124;-60
2021/10/27 01:17:19;;;;;;;;;;;;;;;-0.42;76.73;102558.17;1877610;76;20117;-61
2021/10/27 01:19:49;;;;;;;;;;;;;;;-0.42;76.83;102562.05;1877670;76;20124;-60
2021/10/27 01:22:18;;;;;;;;;;;;;;;-0.47;76.96;102558.41;1877759;76;20115;-60
2021/10/27 01:24:46;;;;;;;;;;;;;;;-0.49;76.80;102557.48;1877735;76;20397;-61
2021/10/27 01:27:14;;;;;;;;;;;;;;;-0.48;76.72;102558.34;1877682;76;20158;-61
2021/10/27 01:29:42;;;;;;;;;;;;;;;-0.49;76.56;102554.89;1877581;76;20426;-61
2021/10/27 01:32:10;;;;;;;;;;;;;;;-0.50;76.45;102553.15;1877623;76;20147;-61
2021/10/27 01:34:38;;;;;;;;;;;;;;;-0.51;76.49;102553.95;1877675;76;20147;-61
2021/10/27 01:37:06;;;;;;;;;;;;;;;-0.53;76.42;102551.73;1877762;76;20180;-60
2021/10/27 01:39:34;;;;;;;;;;;;;;;-0.57;76.53;102545.98;1877680;76;20176;-61
2021/10/27 01:42:02;;;;;;;;;;;;;;;-0.64;76.89;102550.47;1877671;76;20105;-63
2021/10/27 01:44:29;;;;;;;;;;;;;;;-0.70;77.16;102548.94;1877587;76;20199;-61
2021/10/27 01:46:57;;;;;;;;;;;;;;;-0.76;77.23;102548.30;1877679;76;20116;-60
2021/10/27 01:49:25;;;;;;;;;;;;;;;-0.83;77.31;102539.84;1877616;76;20121;-60
2021/10/27 01:51:55;;;;;;;;;;;;;;;-0.89;77.46;102537.91;1877659;76;20148;-61
2021/10/27 01:54:22;;;;;;;;;;;;;;;-0.94;77.96;102536.89;1877710;76;20121;-60
2021/10/27 01:56:50;;;;;;;;;;;;;;;-0.98;78.35;102534.98;1877554;76;20122;-61
2021/10/27 01:59:18;;;;;;;;;;;;;;;-1.02;78.31;102538.29;1877691;76;20125;-60
2021/10/27 02:01:46;;;;;;;;;;;;;;;-1.07;78.39;102537.23;1877650;76;20117;-61
2021/10/27 02:04:15;;;;;;;;;;;;;;;-1.08;78.55;102540.66;1877642;76;20168;-61
2021/10/27 02:06:43;;;;;;;;;;;;;;;-1.10;78.28;102534.55;1877633;76;20109;-61
2021/10/27 02:09:11;;;;;;;;;;;;;;;-1.12;78.13;102531.03;1877553;76;20109;-62
2021/10/27 02:11:39;;;;;;;;;;;;;;;-1.19;78.17;102535.95;1877615;76;20203;-61
2021/10/27 02:14:07;;;;;;;;;;;;;;;-1.21;78.31;102527.25;1877667;76;20109;-61
2021/10/27 02:16:35;;;;;;;;;;;;;;;-1.25;78.11;102526.67;1877764;75;20198;-60
2021/10/27 02:19:02;;;;;;;;;;;;;;;-1.27;78.26;102522.25;1877596;76;20185;-61
2021/10/27 02:21:31;;;;;;;;;;;;;;;-1.27;78.56;102525.73;1877671;76;20121;-61
2021/10/27 02:23:58;;;;;;;;;;;;;;;-1.31;78.79;102522.58;1877614;76;20109;-60
2021/10/27 02:26:28;;;;;;;;;;;;;;;-1.34;78.90;102525.03;1877597;76;20113;-61
2021/10/27 02:28:57;;;;;;;;;;;;;;;-1.36;79.07;102522.80;1877558;76;20387;-61
2021/10/27 02:31:24;;;;;;;;;;;;;;;-1.36;78.99;102513.34;1877644;76;20164;-61
2021/10/27 02:33:52;;;;;;;;;;;;;;;-1.37;78.90;102518.02;1877665;76;20104;-61
2021/10/27 02:36:20;;;;;;;;;;;;;;;-1.35;79.02;102520.67;1877722;76;20125;-61
2021/10/27 02:38:48;;;;;;;;;;;;;;;-1.39;79.16;102516.21;1877612;76;20210;-61
2021/10/27 02:41:16;;;;;;;;;;;;;;;-1.39;79.29;102514.50;1877637;76;20117;-61
2021/10/27 02:43:44;;;;;;;;;;;;;;;-1.40;79.50;102515.34;1877619;76;20156;-61
2021/10/27 02:46:12;;;;;;;;;;;;;;;-1.44;79.66;102517.73;1877603;76;20121;-61
2021/10/27 02:48:41;;;;;;;;;;;;;;;-1.49;79.76;102521.86;1877692;76;20117;-61
2021/10/27 02:51:09;;;;;;;;;;;;;;;-1.51;79.82;102524.77;1877542;75;20188;-61
2021/10/27 02:53:36;;;;;;;;;;;;;;;-1.52;79.83;102522.61;1877680;76;20113;-61
2021/10/27 02:56:04;;;;;;;;;;;;;;;-1.47;79.86;102517.63;1882516;75;20164;-61
2021/10/27 02:58:32;;;;;;;;;;;;;;;-1.48;79.91;102518.44;1883457;76;20140;-61
2021/10/27 03:01:01;;;;;;;;;;;;;;;-1.48;79.83;102519.73;1883479;76;20147;-61
2021/10/27 03:03:29;;;;;;;;;;;;;;;-1.49;79.86;102519.28;1883203;75;20120;-61
2021/10/27 03:05:57;;;;;;;;;;;;;;;-1.52;79.93;102511.40;1883529;76;20127;-61
2021/10/27 03:08:25;;;;;;;;;;;;;;;-1.52;79.95;102513.98;1883423;76;20410;-61
2021/10/27 03:10:52;;;;;;;;;;;;;;;-1.52;79.66;102516.56;1883439;76;20104;-63
2021/10/27 03:13:20;;;;;;;;;;;;;;;-1.57;79.55;102513.78;1883434;75;20143;-62
2021/10/27 03:15:49;;;;;;;;;;;;;;;-1.61;79.49;102514.08;1883409;76;20155;-61
2021/10/27 03:18:17;;;;;;;;;;;;;;;-1.62;79.63;102512.75;1883341;76;20207;-61
2021/10/27 03:20:45;;;;;;;;;;;;;;;-1.63;79.96;102507.09;1883428;76;20195;-61
2021/10/27 03:23:13;;;;;;;;;;;;;;;-1.65;80.38;102510.03;1883426;75;20117;-61
2021/10/27 03:25:41;;;;;;;;;;;;;;;-1.68;80.65;102510.77;1883601;76;20128;-61
2021/10/27 03:28:09;;;;;;;;;;;;;;;-1.66;80.41;102501.80;1883412;76;20116;-61
2021/10/27 03:30:37;;;;;;;;;;;;;;;-1.59;80.19;102505.97;1883287;76;20120;-61
2021/10/27 03:33:05;;;;;;;;;;;;;;;-1.56;80.05;102503.52;1883391;76;20117;-61
2021/10/27 03:35:33;;;;;;;;;;;;;;;-1.53;79.71;102501.48;1883409;76;20108;-62
2021/10/27 03:38:01;;;;;;;;;;;;;;;-1.49;79.41;102498.61;1883427;76;20121;-62
2021/10/27 03:40:29;;;;;;;;;;;;;;;-1.49;79.20;102502.06;1883363;75;20125;-63
2021/10/27 03:42:57;;;;;;;;;;;;;;;-1.48;79.09;102496.06;1883409;75;20116;-63
2021/10/27 03:45:25;;;;;;;;;;;;;;;-1.49;79.08;102494.31;1883315;76;20200;-62
2021/10/27 03:47:53;;;;;;;;;;;;;;;-1.56;79.47;102489.31;1883410;76;20117;-63
2021/10/27 03:50:21;;;;;;;;;;;;;;;-1.60;79.68;102496.48;1883355;76;20116;-63
2021/10/27 03:52:48;;;;;;;;;;;;;;;-1.61;79.72;102479.20;1883440;76;20117;-61
2021/10/27 03:55:17;;;;;;;;;;;;;;;-1.61;79.71;102480.91;1882021;76;20124;-61
2021/10/27 03:57:44;;;;;;;;;;;;;;;-1.64;79.71;102484.66;1877630;76;20212;-62
2021/10/27 04:00:14;;;;;;;;;;;;;;;-1.66;79.80;102482.04;1877607;76;20118;-63
2021/10/27 04:02:42;;;;;;;;;;;;;;;-1.65;79.79;102481.63;1877636;75;20375;-62
2021/10/27 04:05:10;;;;;;;;;;;;;;;-1.62;79.58;102477.45;1877704;76;20113;-62
2021/10/27 04:07:38;;;;;;;;;;;;;;;-1.59;79.37;102473.68;1877629;75;20124;-61
2021/10/27 04:10:08;;;;;;;;;;;;;;;-1.54;79.21;102480.33;1877621;76;20166;-61
2021/10/27 04:12:36;;;;;;;;;;;;;;;-1.48;79.04;102484.85;1877702;76;20492;-62
2021/10/27 04:15:06;;;;;;;;;;;;;;;-1.41;78.94;102489.44;1877563;76;20168;-62
2021/10/27 04:17:34;;;;;;;;;;;;;;;-1.36;78.82;102491.37;1877586;76;20422;-61
2021/10/27 04:20:08;;;;;;;;;;;;;;;-1.28;78.74;102484.33;1877610;76;20116;-61
2021/10/27 04:22:34;;;;;;;;;;;;;;;-1.20;78.61;102490.26;1875899;76;20121;-61
2021/10/27 04:25:02;;;;;;;;;;;;;;;-1.11;78.47;102488.82;1877590;76;20394;-61
2021/10/27 04:27:30;;;;;;;;;;;;;;;-1.03;78.39;102486.12;1877630;76;20128;-62
2021/10/27 04:29:58;;;;;;;;;;;;;;;-0.95;78.34;102488.56;1877794;76;20159;-62
2021/10/27 04:32:26;;;;;;;;;;;;;;;-0.84;78.27;102492.41;1877621;76;20117;-61
2021/10/27 04:34:54;;;;;;;;;;;;;;;-0.75;78.18;102483.24;1877565;76;20147;-61
2021/10/27 04:37:22;;;;;;;;;;;;;;;-0.64;78.12;102492.26;1877482;76;20121;-62
2021/10/27 04:39:50;;;;;;;;;;;;;;;-0.55;78.09;102487.41;1877583;76;20113;-61
2021/10/27 04:42:18;;;;;;;;;;;;;;;-0.46;78.00;102488.11;1877549;76;20113;-61
2021/10/27 04:44:46;;;;;;;;;;;;;;;-0.37;77.92;102489.72;1877556;76;20160;-63
2021/10/27 04:47:13;;;;;;;;;;;;;;;-0.29;77.89;102493.47;1877590;75;20125;-62
2021/10/27 04:49:45;;;;;;;;;;;;;;;-0.26;77.94;102482.33;1877546;76;20147;-63
2021/10/27 04:52:11;;;;;;;;;;;;;;;-0.21;78.03;102493.72;1877362;75;20195;-63
2021/10/27 04:54:40;;;;;;;;;;;;;;;-0.20;78.20;102492.91;1877567;76;20142;-62
2021/10/27 04:57:08;;;;;;;;;;;;;;;-0.21;78.58;102489.41;1881779;76;20390;-62
2021/10/27 04:59:43;;;;;;;;;;;;;;;-0.20;78.75;102490.31;1883355;76;20108;-63
2021/10/27 05:02:11;;;;;;;;;;;;;;;-0.15;78.82;102483.55;1883369;76;20128;-62
2021/10/27 05:04:39;;;;;;;;;;;;;;;-0.08;78.67;102492.00;1883246;76;20233;-61
2021/10/27 05:07:07;;;;;;;;;;;;;;;-0.08;78.75;102489.83;1883336;76;20151;-61
2021/10/27 05:09:36;;;;;;;;;;;;;;;-0.06;79.05;102490.33;1883354;76;20148;-63
2021/10/27 05:12:04;;;;;;;;;;;;;;;0.04;78.99;102493.22;1883370;76;20413;-62
2021/10/27 05:14:32;;;;;;;;;;;;;;;0.16;78.89;102489.74;1883355;76;20147;-61
2021/10/27 05:17:00;;;;;;;;;;;;;;;0.23;78.85;102491.70;1883247;76;20117;-62
2021/10/27 05:19:28;;;;;;;;;;;;;;;0.29;78.76;102491.88;1883334;76;20106;-63
2021/10/27 05:21:56;;;;;;;;;;;;;;;0.31;78.86;102490.21;1883342;76;20117;-62
2021/10/27 05:24:24;;;;;;;;;;;;;;;0.36;79.04;102487.36;1883313;76;20112;-62
2021/10/27 05:26:51;;;;;;;;;;;;;;;0.37;79.17;102491.72;1883358;76;20116;-62
2021/10/27 05:29:20;;;;;;;;;;;;;;;0.45;79.16;102493.67;1883326;75;20109;-62
2021/10/27 05:31:47;;;;;;;;;;;;;;;0.57;79.06;102503.09;1883228;76;20117;-61
2021/10/27 05:34:15;;;;;;;;;;;;;;;0.67;78.81;102496.50;1883347;76;20180;-62
2021/10/27 05:36:43;;;;;;;;;;;;;;;0.67;78.91;102496.08;1883383;76;20116;-61
2021/10/27 05:39:14;;;;;;;;;;;;;;;0.66;79.01;102491.70;1883477;76;20120;-62
2021/10/27 05:41:47;;;;;;;;;;;;;;;0.68;79.07;102491.77;1883346;76;20112;-62
2021/10/27 05:44:14;;;;;;;;;;;;;;;0.71;78.88;102491.44;1883432;75;20413;-61
2021/10/27 05:46:44;;;;;;;;;;;;;;;0.72;78.88;102491.91;1883310;76;20113;-61
2021/10/27 05:51:45;;;;;;;;;;;;;;;0.69;78.73;102489.22;1883357;76;20117;-62
2021/10/27 05:56:57;;;;;;;;;;;;;;;0.71;78.53;102491.44;1881183;76;20219;-61
2021/10/27 05:59:24;;;;;;;;;;;;;;;0.78;78.51;102494.23;1877621;76;20121;-62
2021/10/27 06:01:52;;;;;;;;;;;;;;;0.93;78.31;102489.48;1877682;76;20122;-62
2021/10/27 06:04:20;;;;;;;;;;;;;;;1.12;78.09;102486.98;1877659;76;20143;-61
2021/10/27 06:06:48;;;;;;;;;;;;;;;1.28;78.13;102490.46;1877648;76;20113;-62
2021/10/27 06:09:17;;;;;;;;;;;;;;;1.54;77.96;102491.16;1877573;76;20160;-61
2021/10/27 06:11:47;;;;;;;;;;;;;;;1.81;77.66;102490.13;1877609;76;20147;-61
2021/10/27 06:14:16;;;;;;;;;;;;;;;2.08;77.31;102491.20;1877635;76;20108;-62
2021/10/27 06:16:44;;;;;;;;;;;;;;;2.30;77.05;102499.09;1877746;76;20932;-61
2021/10/27 06:19:12;;;;;;;;;;;;;;;2.55;76.68;102489.70;1877699;76;20117;-62
2021/10/27 06:21:40;;;;;;;;;;;;;;;2.68;76.24;102488.68;1877558;75;20105;-62
2021/10/27 06:24:08;;;;;;;;;;;;;;;2.72;75.87;102488.76;1877932;76;20117;-61
2021/10/27 06:26:36;;;;;;;;;;;;;;;2.76;75.70;102489.27;1877622;76;20395;-61
2021/10/27 06:29:07;;;;;;;;;;;;;;;2.78;75.50;102473.27;1877696;76;20108;-61
2021/10/27 06:31:44;;;;;;;;;;;;;;;2.87;75.52;102474.33;1857634;76;20121;-61
2021/10/27 06:47:49;;;;;;;;;;;;;;;3.45;74.52;102468.52;1877747;76;20129;-61
2021/10/27 06:50:17;;;;;;;;;;;;;;;3.45;74.34;102460.27;1877636;76;20383;-61
2021/10/27 06:52:45;;;;;;;;;;;;;;;3.52;74.44;102459.08;1877645;76;20113;-63
2021/10/27 06:55:13;;;;;;;;;;;;;;;3.61;74.56;102456.20;1877585;76;20203;-61
2021/10/27 06:57:41;;;;;;;;;;;;;;;3.79;74.31;102449.12;1879803;76;20121;-61
2021/10/27 07:00:20;;;;;;;;;;;;;;;3.93;74.38;102451.06;1883441;76;20124;-61
2021/10/27 07:16:13;;;;;;;;;;;;;;;4.68;73.19;102433.02;1883493;76;20113;-61
2021/10/27 07:18:41;;;;;;;;;;;;;;;4.84;73.04;102435.83;1883435;76;20148;-61
2021/10/27 07:21:09;;;;;;;;;;;;;;;4.81;72.66;102438.42;1883455;76;20114;-61
2021/10/27 07:23:40;;;;;;;;;;;;;;;4.76;72.56;102440.09;1883426;75;20125;-61
2021/10/27 07:26:06;;;;;;;;;;;;;;;4.74;72.43;102432.67;1883454;76;20191;-61
2021/10/27 07:28:34;;;;;;;;;;;;;;;4.82;72.28;102425.80;1883419;76;20104;-61
2021/10/27 07:31:04;;;;;;;;;;;;;;;5.13;71.86;102416.14;1883438;76;20120;-61
2021/10/27 07:33:33;;;;;;;;;;;;;;;5.54;71.05;102413.05;1883451;76;20397;-61
2021/10/27 07:41:16;;;;;;;;;;;;;;;8.94;66.82;102408.39;1883429;76;20116;-61
2021/10/27 07:43:45;;;;;;;;;;;;;;;10.10;65.76;102411.44;1883340;76;20104;-61
2021/10/27 07:46:13;;;;;;;;;;;;;;;11.07;64.70;102401.06;1883335;75;20428;-61
2021/10/27 07:48:40;;;;;;;;;;;;;;;12.26;63.60;102392.02;1883412;76;20104;-61
2021/10/27 07:51:08;;;;;;;;;;;;;;;12.44;62.47;102394.75;1883281;76;20147;-62
2021/10/27 07:53:36;;;;;;;;;;;;;;;12.52;60.73;102388.84;1883309;76;20112;-61
2021/10/27 07:56:04;;;;;;;;;;;;;;;12.72;58.03;102384.45;1883306;76;20147;-61
2021/10/27 07:58:33;;;;;;;;;;;;;;;12.92;56.42;102388.84;1880131;76;20128;-61
2021/10/27 08:01:01;;;;;;;;;;;;;;;12.53;57.10;102384.85;1877493;76;20133;-61
2021/10/27 08:03:29;;;;;;;;;;;;;;;11.91;58.08;102387.81;1877467;76;20105;-61
2021/10/27 08:06:01;;;;;;;;;;;;;;;11.40;57.84;102381.22;1877387;76;20191;-61
2021/10/27 08:08:26;;;;;;;;;;;;;;;10.75;58.15;102378.22;1877120;75;20116;-61
2021/10/27 08:10:54;;;;;;;;;;;;;;;10.52;58.54;102378.97;1877601;76;20150;-61
2021/10/27 08:13:22;;;;;;;;;;;;;;;11.26;57.05;102379.23;1877475;76;20120;-61
2021/10/27 08:15:51;;;;;;;;;;;;;;;11.93;55.97;102373.27;1877509;76;20145;-61
2021/10/27 08:18:19;;;;;;;;;;;;;;;11.88;56.55;102372.48;1877533;76;20153;-62
2021/10/27 08:20:47;;;;;;;;;;;;;;;11.72;57.24;102377.15;1877445;76;20233;-61
2021/10/27 08:23:17;;;;;;;;;;;;;;;12.39;56.25;102371.51;1877577;75;20156;-61
2021/10/27 08:25:48;;;;;;;;;;;;;;;13.09;54.32;102372.58;1877455;76;20109;-61
2021/10/27 08:28:16;;;;;;;;;;;;;;;13.24;53.89;102365.20;1877451;76;20117;-61
2021/10/27 08:36:12;;;;;;;;;;;;;;;14.59;50.60;102361.62;1877493;76;20387;-62
2021/10/27 08:38:40;;;;;;;;;;;;;;;15.12;49.92;102354.67;1877578;76;20105;-62
2021/10/27 08:41:07;;;;;;;;;;;;;;;15.55;49.41;102347.95;1877476;76;20125;-62
2021/10/27 08:43:35;;;;;;;;;;;;;;;15.91;48.22;102342.29;1877613;75;20168;-63
2021/10/27 08:46:03;;;;;;;;;;;;;;;16.16;47.62;102340.94;1877535;76;20153;-62
2021/10/27 08:48:31;;;;;;;;;;;;;;;16.64;47.94;102341.33;1877478;76;20113;-62
2021/10/27 08:51:00;;;;;;;;;;;;;;;17.08;46.98;102344.48;1877462;76;20113;-62
2021/10/27 08:53:29;;;;;;;;;;;;;;;16.85;45.41;102347.61;1877443;76;20121;-62
2021/10/27 08:56:01;;;;;;;;;;;;;;;16.74;45.22;102344.48;1877389;76;20168;-64
2021/10/27 08:58:31;;;;;;;;;;;;;;;17.10;44.75;102343.51;1876258;76;20156;-62
2021/10/27 09:01:10;;;;;;;;;;;;;;;17.08;44.04;102344.03;1874167;76;20104;-62
2021/10/27 09:04:01;;;;;;;;;;;;;;;16.91;44.19;102335.86;1873300;76;20109;-62
2021/10/27 09:34:25;;;;;;;;;;;;;;;18.40;41.45;102304.08;1875019;77;20122;-61
2021/10/27 10:04:31;;;;;;;;;;;;;;;18.72;41.18;102268.34;1877535;76;20147;-62
2021/10/27 10:06:56;;;;;;;;;;;;;;;18.75;41.36;102259.31;1876659;76;20121;-62
2021/10/27 10:09:26;;;;;;;;;;;;;;;19.15;41.41;102258.20;1877444;76;20105;-62
2021/10/27 10:11:54;;;;;;;;;;;;;;;19.19;41.01;102250.42;1877669;76;20151;-62
2021/10/27 10:14:22;;;;;;;;;;;;;;;19.00;40.82;102252.32;1877542;76;20117;-63
2021/10/27 10:16:51;;;;;;;;;;;;;;;18.88;41.08;102249.30;1877673;76;20121;-63
2021/10/27 10:19:24;;;;;;;;;;;;;;;18.45;40.90;102247.39;1877596;76;20398;-63
2021/10/27 10:21:52;;;;;;;;;;;;;;;18.35;41.16;102244.76;1877547;76;20116;-62
2021/10/27 10:24:24;;;;;;;;;;;;;;;18.48;41.39;102243.25;1877557;76;20145;-63
2021/10/27 10:26:55;;;;;;;;;;;;;;;18.73;41.30;102230.03;1877734;76;20144;-62
2021/10/27 10:29:45;;;;;;;;;;;;;;;18.76;41.03;102220.55;1877029;76;20165;-62
2021/10/27 10:32:25;;;;;;;;;;;;;;;18.71;41.34;102225.24;1877321;76;20160;-62
2021/10/27 10:34:56;;;;;;;;;;;;;;;18.86;41.34;102224.97;1875883;76;20151;-62
2021/10/27 10:38:20;;;;;;;;;;;;;;;18.71;41.31;102219.91;1876622;76;20117;-62
2021/10/27 10:46:00;;;;;;;;;;;;;;;18.48;41.15;102216.58;1877574;76;20218;-62
2021/10/27 10:57:23;;;;;;;;;;;;;;;17.91;42.09;102205.95;1877645;75;20433;-62
2021/10/27 11:41:26;;;;;;;;;;;;;;;15.96;45.88;102176.97;1877497;76;20117;-62
2021/10/27 11:43:57;;;;;;;;;;;;;;;15.71;46.76;102167.23;1875920;76;20121;-63
2021/10/27 11:46:28;;;;;;;;;;;;;;;15.19;47.70;102175.32;1877374;75;20147;-62
2021/10/27 11:48:59;;;;;;;;;;;;;;;14.55;48.77;102169.11;1877466;76;20117;-62
2021/10/27 11:51:28;;;;;;;;;;;;;;;13.93;49.58;102168.84;1876520;76;20121;-62
2021/10/27 11:53:58;;;;;;;;;;;;;;;13.46;50.35;102166.69;1877520;76;20409;-62
2021/10/27 11:56:25;;;;;;;;;;;;;;;13.08;51.04;102167.24;1877484;76;20113;-62
2021/10/27 11:58:55;;;;;;;;;;;;;;;12.77;51.65;102171.14;1877458;75;20109;-62
2021/10/27 12:01:25;;;;;;;;;;;;;;;12.54;52.07;102167.73;1877559;76;20391;-61
2021/10/27 12:03:53;;;;;;;;;;;;;;;12.40;52.63;102165.44;1877434;75;20195;-62
2021/10/27 12:06:37;;;;;;;;;;;;;;;12.22;53.40;102161.45;1877505;76;20117;-62
2021/10/27 12:14:35;;;;;;;;;;;;;;;11.86;54.17;102161.36;1877382;76;20117;-63
2021/10/27 12:17:02;;;;;;;;;;;;;;;11.82;54.36;102158.80;1875075;76;20121;-62
2021/10/27 12:19:24;;;;;;;;;;;;;;;11.76;54.59;102155.84;1875872;76;20117;-63
2021/10/27 12:22:03;;;;;;;;;;;;;;;11.69;54.77;102155.55;1877565;76;20121;-62
2021/10/27 12:24:33;;;;;;;;;;;;;;;11.63;54.82;102157.88;1877594;75;20398;-63
2021/10/27 12:27:03;;;;;;;;;;;;;;;11.60;54.99;102156.64;1877415;76;20167;-63
2021/10/27 12:29:32;;;;;;;;;;;;;;;11.58;55.16;102158.41;1875428;76;20406;-62
2021/10/27 12:32:11;;;;;;;;;;;;;;;11.58;55.28;102159.30;1877465;76;20387;-62
2021/10/27 12:34:46;;;;;;;;;;;;;;;11.52;55.62;102154.12;1877472;75;20155;-62
2021/10/27 12:37:29;;;;;;;;;;;;;;;11.45;55.93;102150.34;1877469;75;20117;-62
2021/10/27 12:40:21;;;;;;;;;;;;;;;11.41;55.81;102157.44;1877504;76;20108;-62
2021/10/27 12:42:50;;;;;;;;;;;;;;;11.32;55.92;102143.11;1854136;75;20113;-60
2021/10/27 12:45:19;;;;;;;;;;;;;;;11.33;55.98;102146.19;1856836;77;20120;-61
2021/10/27 12:47:47;;;;;;;;;;;;;;;11.34;56.15;102146.59;1857143;77;20129;-60
2021/10/27 12:50:18;;;;;;;;;;;;;;;11.30;56.13;102148.87;1858755;77;20121;-60
2021/10/27 12:52:56;;;;;;;;;;;;;;;11.27;56.23;102143.22;1858774;77;20120;-60
2021/10/27 12:55:26;;;;;;;;;;;;;;;11.23;56.52;102140.66;1858850;77;20423;-60
2021/10/27 12:57:58;;;;;;;;;;;;;;;11.13;56.75;102143.93;1858621;77;20108;-60
2021/10/27 13:00:43;;;;;;;;;;;;;;;11.12;56.82;102136.48;1858800;77;20155;-60
2021/10/27 13:05:51;;;;;;;;;;;;;;;11.03;57.04;102137.97;1858857;77;20121;-60
2021/10/27 13:16:26;;;;;;;;;;;;;;;10.85;57.63;102133.03;1837994;77;20120;-60
2021/10/27 13:19:07;;;;;;;;;;;;;;;10.79;58.03;102130.06;1856448;77;20121;-61
2021/10/27 13:32:11;;;;;;;;;;;;;;;10.56;58.49;102134.39;1858819;76;20226;-62
2021/10/27 13:34:37;;;;;;;;;;;;;;;10.51;58.61;102132.28;1858532;77;20117;-63
2021/10/27 13:37:07;;;;;;;;;;;;;;;10.47;58.68;102128.83;1858818;77;20108;-62
2021/10/27 13:39:36;;;;;;;;;;;;;;;10.43;58.69;102131.95;1858769;77;20148;-62
2021/10/27 13:42:15;;;;;;;;;;;;;;;10.38;58.75;102127.23;1856794;76;20120;-62
2021/10/27 13:44:45;;;;;;;;;;;;;;;10.33;58.78;102133.02;1853163;77;20108;-62
2021/10/27 13:47:19;;;;;;;;;;;;;;;10.28;58.90;102123.42;1842613;77;20121;-63
2021/10/27 13:57:54;;;;;;;;;;;;;;;10.02;59.22;102130.80;1841921;77;20117;-62
2021/10/27 14:06:09;;;;;;;;;;;;;;;9.77;59.51;102141.23;1841918;78;20435;-63
2021/10/27 14:09:19;;;;;;;;;;;;;;;9.69;59.57;102136.54;1820793;78;20628;-61
2021/10/27 14:20:14;;;;;;;;;;;;;;;9.28;60.21;102125.19;1842049;77;20105;-61
2021/10/27 14:41:20;;;;;;;;;;;;;;;8.61;61.07;102121.50;1811721;79;20143;-61
2021/10/27 15:19:45;;;;;;;;;;;;;;;7.71;62.42;102140.86;1821781;77;20127;-62
2021/10/27 15:22:16;;;;;;;;;;;;;;;7.67;62.39;102148.31;1823191;77;20123;-61
2021/10/27 15:41:28;;;;;;;;;;;;;;;7.33;63.15;102156.28;1827786;78;20450;-65
2021/10/27 15:44:00;;;;;;;;;;;;;;;7.32;63.42;102157.17;1849924;76;20176;-62
2021/10/27 15:52:01;;;;;;;;;;;;;;;7.27;64.46;102160.23;1823965;79;20171;-61
2021/10/27 15:54:27;;;;;;;;;;;;;;;7.25;64.35;102158.48;1821782;78;20165;-62
2021/10/27 15:56:55;;;;;;;;;;;;;;;7.21;64.75;102152.41;1824414;77;20115;-61
2021/10/27 15:59:23;;;;;;;;;;;;;;;7.18;65.06;102158.95;1826332;79;20123;-61
2021/10/27 16:01:51;;;;;;;;;;;;;;;7.14;64.91;102150.67;1844148;77;20185;-64
2021/10/27 16:04:20;;;;;;;;;;;;;;;7.09;64.86;102151.98;1859425;76;20184;-62
2021/10/27 16:06:52;;;;;;;;;;;;;;;7.06;64.87;102147.18;1859167;76;20129;-62
2021/10/27 16:09:24;;;;;;;;;;;;;;;7.02;65.07;102152.00;1859343;76;20150;-63
2021/10/27 16:11:49;;;;;;;;;;;;;;;6.98;65.10;102153.75;1858456;77;20126;-63
2021/10/27 16:14:21;;;;;;;;;;;;;;;6.93;65.18;102151.15;1859285;77;20146;-63
2021/10/27 16:16:46;;;;;;;;;;;;;;;6.88;65.32;102145.04;1858966;76;20142;-63
2021/10/27 16:19:14;;;;;;;;;;;;;;;6.84;66.74;102151.58;1859333;77;20228;-62
2021/10/27 16:21:43;;;;;;;;;;;;;;;6.78;66.92;102148.52;1843337;76;20123;-63
2021/10/27 16:24:10;;;;;;;;;;;;;;;6.73;67.29;102155.50;1826307;77;20193;-64
2021/10/27 16:26:38;;;;;;;;;;;;;;;6.66;67.84;102153.34;1841248;77;20220;-63
2021/10/27 16:29:06;;;;;;;;;;;;;;;6.60;68.84;102153.77;1859282;77;20138;-63
2021/10/27 16:31:34;;;;;;;;;;;;;;;6.49;70.30;102152.03;1845061;77;20166;-62
2021/10/27 16:34:02;;;;;;;;;;;;;;;6.33;71.60;102151.59;1826457;79;20123;-63
2021/10/27 16:36:30;;;;;;;;;;;;;;;6.28;71.22;102154.63;1826513;79;20417;-63
2021/10/27 16:38:58;;;;;;;;;;;;;;;6.21;71.03;102160.70;1826281;77;20110;-63
2021/10/27 16:41:26;;;;;;;;;;;;;;;6.13;71.95;102155.02;1825647;77;20145;-63
2021/10/27 16:43:54;;;;;;;;;;;;;;;6.07;72.39;102148.48;1818556;77;20119;-63
2021/10/27 16:46:21;;;;;;;;;;;;;;;6.01;72.50;102144.97;1808941;79;20127;-62
2021/10/27 16:48:50;;;;;;;;;;;;;;;5.95;72.36;102143.19;1815352;79;20124;-60
2021/10/27 16:51:18;;;;;;;;;;;;;;;5.92;72.86;102138.83;1821668;76;20170;-63
2021/10/27 16:53:48;;;;;;;;;;;;;;;5.91;72.95;102133.59;1847057;77;20122;-62
2021/10/27 16:56:15;;;;;;;;;;;;;;;5.90;72.74;102141.87;1843782;76;20424;-64
2021/10/27 16:58:43;;;;;;;;;;;;;;;5.88;72.62;102138.36;1842378;78;20146;-63
2021/10/27 17:01:11;;;;;;;;;;;;;;;5.82;73.91;102137.48;1839335;78;20148;-61
2021/10/27 17:03:39;;;;;;;;;;;;;;;5.71;74.67;102142.23;1844449;78;20173;-62
2021/10/27 17:06:08;;;;;;;;;;;;;;;5.65;74.72;102139.61;1836731;78;20200;-63
2021/10/27 17:08:39;;;;;;;;;;;;;;;5.60;74.83;102135.66;1802498;78;20157;-62
2021/10/27 17:11:07;;;;;;;;;;;;;;;5.52;74.73;102140.43;1803065;79;20286;-61
2021/10/27 17:13:35;;;;;;;;;;;;;;;5.40;75.09;102146.05;1812617;78;20123;-60
2021/10/27 17:16:03;;;;;;;;;;;;;;;5.30;75.14;102132.48;1812903;78;20128;-62
2021/10/27 17:18:32;;;;;;;;;;;;;;;5.21;75.34;102135.05;1842171;76;20134;-62
2021/10/27 17:21:02;;;;;;;;;;;;;;;5.10;75.59;102144.56;1835177;78;20419;-62
2021/10/27 17:23:32;;;;;;;;;;;;;;;5.00;75.74;102140.58;1794115;78;20123;-62
2021/10/27 17:25:59;;;;;;;;;;;;;;;4.95;75.97;102133.15;1813589;78;20162;-62
2021/10/27 17:28:27;;;;;;;;;;;;;;;4.94;76.12;102134.03;1842378;78;20146;-61
2021/10/27 17:30:57;;;;;;;;;;;;;;;4.93;76.11;102132.27;1837618;76;20181;-62